createdAt,value
2023-12-15T00:02:01.137Z,25.48
2023-12-15T00:04:28.976Z,26.40
2023-12-15T00:06:56.697Z,26.75
2023-12-15T00:09:24.855Z,30.33
2023-12-15T00:11:52.624Z,29.25
2023-12-15T00:14:20.433Z,27.88
2023-12-15T00:16:48.184Z,26.30
2023-12-15T00:19:17.460Z,28.50
2023-12-15T00:21:45.285Z,28.95
2023-12-15T00:24:13.128Z,28.58
2023-12-15T00:26:40.854Z,26.98
2023-12-15T00:29:08.655Z,27.52
2023-12-15T00:31:36.365Z,25.75
2023-12-15T00:34:04.194Z,29.15
2023-12-15T00:36:33.417Z,32.92
2023-12-15T00:39:01.205Z,30.25
2023-12-15T00:41:28.943Z,29.38
2023-12-15T00:43:56.778Z,35.47
2023-12-15T00:46:24.897Z,35.05
2023-12-15T00:48:52.769Z,32.00
2023-12-15T00:51:20.643Z,32.58
2023-12-15T00:53:49.778Z,31.15
2023-12-15T00:56:17.682Z,31.42
2023-12-15T00:58:45.499Z,28.90
2023-12-15T01:01:13.742Z,31.15
2023-12-15T01:03:41.674Z,38.30
2023-12-15T01:06:09.678Z,37.90
2023-12-15T01:08:37.504Z,46.03
2023-12-15T01:11:07.298Z,42.30
2023-12-15T01:13:35.116Z,34.85
2023-12-15T01:16:06.096Z,36.63
2023-12-15T01:18:33.978Z,37.28
2023-12-15T01:21:02.639Z,39.53
2023-12-15T01:23:30.622Z,41.38
2023-12-15T01:25:58.364Z,40.00
2023-12-15T01:28:27.796Z,37.80
2023-12-15T01:30:55.807Z,39.65
2023-12-15T01:33:23.760Z,44.08
2023-12-15T01:35:51.568Z,42.10
2023-12-15T01:38:19.331Z,46.70
2023-12-15T01:40:47.079Z,42.45
2023-12-15T01:43:14.834Z,42.28
2023-12-15T01:45:43.969Z,39.20
2023-12-15T01:48:13.023Z,41.03
2023-12-15T01:50:41.032Z,42.13
2023-12-15T01:53:09.494Z,37.92
2023-12-15T01:55:37.288Z,40.85
2023-12-15T01:58:05.098Z,39.80
2023-12-15T02:00:32.844Z,44.28
2023-12-15T02:03:02.013Z,42.30
2023-12-15T02:05:29.868Z,43.33
2023-12-15T02:07:57.700Z,44.38
2023-12-15T02:10:25.435Z,38.28
2023-12-15T02:12:53.418Z,41.30
2023-12-15T02:15:21.133Z,41.00
2023-12-15T02:17:49.075Z,43.85
2023-12-15T02:20:18.300Z,40.63
2023-12-15T02:22:47.400Z,40.03
2023-12-15T02:25:15.258Z,41.45
2023-12-15T02:27:42.984Z,43.17
2023-12-15T02:30:11.521Z,44.08
2023-12-15T02:32:39.483Z,47.90
2023-12-15T02:35:07.545Z,40.50
2023-12-15T02:37:35.624Z,39.45
2023-12-15T02:40:06.691Z,39.38
2023-12-15T02:42:34.559Z,43.13
2023-12-15T02:45:02.880Z,40.58
2023-12-15T02:47:31.322Z,42.20
2023-12-15T02:49:59.255Z,42.65
2023-12-15T02:52:27.028Z,42.92
2023-12-15T02:54:54.753Z,44.03
2023-12-15T02:57:23.867Z,41.70
2023-12-15T02:59:51.645Z,38.30
2023-12-15T03:02:19.446Z,40.38
2023-12-15T03:04:47.185Z,40.38
2023-12-15T03:07:15.054Z,39.83
2023-12-15T03:09:42.744Z,40.75
2023-12-15T03:12:10.491Z,38.78
2023-12-15T03:14:39.572Z,36.45
2023-12-15T03:17:07.346Z,42.15
2023-12-15T03:19:35.131Z,38.95
2023-12-15T03:22:02.934Z,39.75
2023-12-15T03:24:30.645Z,36.40
2023-12-15T03:26:58.417Z,40.50
2023-12-15T03:29:26.174Z,36.45
2023-12-15T03:31:55.343Z,36.50
2023-12-15T03:34:23.124Z,35.45
2023-12-15T03:36:50.893Z,40.50
2023-12-15T03:39:18.608Z,34.13
2023-12-15T03:41:46.340Z,41.67
2023-12-15T03:44:14.102Z,41.10
2023-12-15T03:46:41.889Z,36.30
2023-12-15T03:49:10.970Z,34.92
2023-12-15T03:51:38.734Z,34.40
2023-12-15T03:54:06.447Z,36.55
2023-12-15T03:56:34.241Z,40.38
2023-12-15T03:59:02.659Z,37.40
2023-12-15T04:01:31.193Z,35.90
2023-12-15T04:03:59.337Z,44.78
2023-12-15T04:06:28.514Z,39.90
2023-12-15T04:08:56.665Z,39.25
2023-12-15T04:11:24.504Z,36.05
2023-12-15T04:13:52.281Z,36.45
2023-12-15T04:16:20.037Z,41.80
2023-12-15T04:18:47.864Z,40.40
2023-12-15T04:21:15.659Z,35.60
2023-12-15T04:23:44.722Z,34.35
2023-12-15T04:26:12.577Z,33.85
2023-12-15T04:28:40.317Z,32.38
2023-12-15T04:31:08.074Z,34.67
2023-12-15T04:33:35.921Z,35.15
2023-12-15T04:36:03.700Z,34.72
2023-12-15T04:38:31.547Z,32.53
2023-12-15T04:41:00.658Z,34.65
2023-12-15T04:43:28.599Z,33.13
2023-12-15T04:45:57.000Z,35.42
2023-12-15T04:48:24.817Z,37.88
2023-12-15T04:50:53.384Z,35.42
2023-12-15T04:53:21.206Z,35.20
2023-12-15T04:55:49.061Z,35.78
2023-12-15T04:58:18.137Z,36.65
2023-12-15T05:00:46.451Z,35.67
2023-12-15T05:03:14.318Z,39.95
2023-12-15T05:05:44.797Z,38.45
2023-12-15T05:08:12.644Z,33.38
2023-12-15T05:10:40.481Z,38.63
2023-12-15T05:13:08.626Z,43.47
2023-12-15T05:15:37.843Z,34.85
2023-12-15T05:18:06.452Z,31.30
2023-12-15T05:20:37.606Z,30.50
2023-12-15T05:23:05.933Z,31.33
2023-12-15T05:25:33.904Z,38.20
2023-12-15T05:28:01.620Z,33.42
2023-12-15T05:30:29.489Z,39.97
2023-12-15T05:32:58.689Z,37.35
2023-12-15T05:35:26.711Z,38.88
2023-12-15T05:37:55.452Z,36.10
2023-12-15T05:40:23.269Z,38.25
2023-12-15T05:42:51.140Z,38.40
2023-12-15T05:45:18.880Z,43.58
2023-12-15T05:47:46.822Z,47.53
2023-12-15T05:50:16.185Z,44.17
2023-12-15T05:52:44.100Z,39.67
2023-12-15T05:55:11.865Z,43.08
2023-12-15T05:57:39.930Z,44.97
2023-12-15T06:00:10.072Z,43.95
2023-12-15T06:02:37.923Z,39.17
2023-12-15T06:05:06.593Z,43.13
2023-12-15T06:07:36.220Z,48.00
2023-12-15T06:10:04.120Z,54.65
2023-12-15T06:12:31.856Z,50.60
2023-12-15T06:14:59.654Z,46.72
2023-12-15T06:17:27.459Z,48.30
2023-12-15T06:19:55.680Z,47.05
2023-12-15T06:22:23.504Z,41.58
2023-12-15T06:24:52.587Z,42.30
2023-12-15T06:27:20.363Z,50.97
2023-12-15T06:29:48.083Z,43.05
2023-12-15T06:32:17.108Z,43.40
2023-12-15T06:34:45.068Z,52.50
2023-12-15T06:37:12.934Z,53.13
2023-12-15T06:39:41.178Z,51.05
2023-12-15T06:42:10.389Z,45.75
2023-12-15T06:44:38.198Z,60.17
2023-12-15T06:47:06.911Z,57.30
2023-12-15T06:49:34.789Z,52.72
2023-12-15T06:52:02.583Z,53.85
2023-12-15T06:54:30.355Z,59.05
2023-12-15T06:56:58.118Z,55.35
2023-12-15T06:59:27.176Z,52.55
2023-12-15T07:01:54.996Z,56.45
2023-12-15T07:04:23.085Z,53.47
2023-12-15T07:06:50.982Z,49.85
2023-12-15T07:09:20.101Z,47.70
2023-12-15T07:11:47.966Z,56.50
2023-12-15T07:14:15.773Z,47.65
2023-12-15T07:16:44.869Z,52.05
2023-12-15T07:19:12.835Z,45.50
2023-12-15T07:21:40.638Z,53.38
2023-12-15T07:24:09.172Z,59.95
2023-12-15T07:26:37.244Z,50.75
2023-12-15T07:29:05.144Z,70.10
2023-12-15T07:31:33.367Z,51.13
2023-12-15T07:34:02.531Z,47.83
2023-12-15T07:36:30.348Z,51.97
2023-12-15T07:38:58.100Z,51.60
2023-12-15T07:41:25.814Z,52.85
2023-12-15T07:43:53.654Z,55.22
2023-12-15T07:46:21.951Z,60.17
2023-12-15T07:48:49.725Z,52.50
2023-12-15T07:51:19.702Z,59.22
2023-12-15T07:53:48.705Z,52.50
2023-12-15T07:56:26.525Z,54.22
2023-12-15T07:58:55.417Z,48.17
2023-12-15T08:01:24.989Z,66.78
2023-12-15T08:03:52.794Z,56.58
2023-12-15T08:06:22.284Z,50.35
2023-12-15T08:08:50.599Z,51.75
2023-12-15T08:11:18.493Z,53.08
2023-12-15T08:13:46.513Z,51.30
2023-12-15T08:16:15.037Z,52.80
2023-12-15T08:18:44.715Z,49.35
2023-12-15T08:21:13.001Z,51.58
2023-12-15T08:23:42.412Z,51.53
2023-12-15T08:26:10.882Z,57.42
2023-12-15T08:28:38.703Z,54.33
2023-12-15T08:31:06.980Z,66.82
2023-12-15T08:33:34.871Z,46.40
2023-12-15T08:36:02.689Z,48.40
2023-12-15T08:38:30.435Z,52.78
2023-12-15T08:41:00.326Z,59.13
2023-12-15T08:43:29.039Z,59.55
2023-12-15T08:45:57.300Z,65.25
2023-12-15T08:48:25.289Z,51.25
2023-12-15T08:50:53.242Z,54.40
2023-12-15T08:53:21.044Z,62.72
2023-12-15T08:55:48.919Z,56.42
2023-12-15T08:58:18.102Z,63.95
2023-12-15T09:00:46.204Z,60.35
2023-12-15T09:03:14.123Z,58.65
2023-12-15T09:06:07.104Z,58.95
2023-12-15T09:08:29.743Z,52.65
2023-12-15T09:10:57.619Z,56.33
2023-12-15T09:13:26.743Z,45.83
2023-12-15T09:15:55.195Z,56.03
2023-12-15T09:18:23.079Z,47.15
2023-12-15T09:20:51.043Z,51.83
2023-12-15T09:23:18.942Z,52.03
2023-12-15T09:25:50.530Z,44.67
2023-12-15T09:28:18.434Z,55.28
2023-12-15T09:30:47.612Z,49.97
2023-12-15T09:33:15.428Z,42.53
2023-12-15T09:35:43.394Z,45.35
2023-12-15T09:38:11.182Z,39.97
2023-12-15T09:40:38.960Z,36.85
2023-12-15T09:43:06.842Z,37.60
2023-12-15T09:45:34.607Z,37.75
2023-12-15T09:48:05.982Z,42.50
2023-12-15T09:50:35.464Z,37.90
2023-12-15T09:53:05.189Z,35.85
2023-12-15T09:55:33.185Z,41.25
2023-12-15T09:58:01.542Z,46.03
2023-12-15T10:00:30.535Z,45.90
2023-12-15T10:03:00.015Z,37.22
2023-12-15T10:05:29.829Z,36.47
2023-12-15T10:07:57.723Z,37.28
2023-12-15T10:10:28.002Z,38.38
2023-12-15T10:12:57.075Z,38.38
2023-12-15T10:15:28.400Z,36.72
2023-12-15T10:17:59.224Z,30.38
2023-12-15T10:20:27.369Z,37.70
2023-12-15T10:23:03.767Z,36.35
2023-12-15T10:25:31.835Z,36.50
2023-12-15T10:28:01.576Z,32.30
2023-12-15T10:30:30.793Z,32.08
2023-12-15T10:32:58.992Z,32.20
2023-12-15T10:35:27.828Z,32.92
2023-12-15T10:37:55.846Z,32.22
2023-12-15T10:40:25.072Z,29.65
2023-12-15T10:42:53.323Z,29.00
2023-12-15T10:45:21.606Z,34.90
2023-12-15T10:47:50.539Z,37.22
2023-12-15T10:50:19.635Z,30.13
2023-12-15T10:52:47.404Z,31.15
2023-12-15T10:55:15.973Z,39.90
2023-12-15T10:57:45.402Z,35.55
2023-12-15T11:00:14.965Z,30.55
2023-12-15T11:02:43.349Z,29.27
2023-12-15T11:05:11.503Z,32.38
2023-12-15T11:07:41.261Z,39.70
2023-12-15T11:10:11.144Z,34.17
2023-12-15T11:12:40.922Z,35.63
2023-12-15T11:15:12.241Z,41.67
2023-12-15T11:17:42.965Z,37.42
2023-12-15T11:20:35.152Z,37.80
2023-12-15T11:23:08.379Z,41.92
2023-12-15T11:25:38.371Z,38.83
2023-12-15T11:28:11.183Z,39.63
2023-12-15T11:30:41.922Z,45.17
2023-12-15T11:33:42.962Z,44.05
2023-12-15T11:36:14.759Z,41.40
2023-12-15T11:38:44.340Z,43.13
2023-12-15T11:41:12.506Z,41.70
2023-12-15T11:43:44.509Z,41.03
2023-12-15T11:46:13.790Z,41.33
2023-12-15T11:48:43.270Z,39.80
2023-12-15T11:51:11.497Z,47.03
2023-12-15T11:53:42.464Z,47.72
2023-12-15T11:56:11.989Z,44.13
2023-12-15T11:58:40.342Z,44.25
2023-12-15T12:01:09.640Z,46.72
2023-12-15T12:03:38.996Z,43.15
2023-12-15T12:06:09.705Z,43.85
2023-12-15T12:08:38.386Z,57.83
2023-12-15T12:11:09.329Z,48.83
2023-12-15T12:13:40.426Z,48.78
2023-12-15T12:16:08.895Z,51.42
2023-12-15T12:18:38.177Z,45.63
2023-12-15T12:21:08.298Z,54.03
2023-12-15T12:23:43.251Z,53.60
2023-12-15T12:26:15.527Z,51.88
2023-12-15T12:28:48.192Z,48.25
2023-12-15T12:31:16.540Z,54.85
2023-12-15T12:33:46.135Z,57.08
2023-12-15T12:36:16.258Z,47.30
2023-12-15T12:38:45.411Z,50.40
2023-12-15T12:41:13.674Z,55.88
2023-12-15T12:43:42.638Z,57.47
2023-12-15T12:46:11.843Z,53.30
2023-12-15T12:48:39.891Z,46.28
2023-12-15T12:51:09.293Z,52.03
2023-12-15T12:53:37.213Z,49.45
2023-12-15T12:56:06.168Z,53.03
2023-12-15T12:58:34.358Z,54.22
2023-12-15T13:01:02.150Z,53.90
2023-12-15T13:03:30.066Z,53.63
2023-12-15T13:05:58.631Z,51.72
2023-12-15T13:08:28.142Z,50.00
2023-12-15T13:10:55.972Z,49.50
2023-12-15T13:13:24.089Z,47.72
2023-12-15T13:15:52.097Z,52.30
2023-12-15T13:18:20.169Z,51.83
2023-12-15T13:20:48.090Z,67.13
2023-12-15T13:23:16.007Z,52.15
2023-12-15T13:25:45.097Z,49.10
2023-12-15T13:28:13.001Z,47.08
2023-12-15T13:30:41.689Z,49.17
2023-12-15T13:33:09.527Z,43.38
2023-12-15T13:35:37.464Z,50.30
2023-12-15T13:38:05.361Z,48.70
2023-12-15T13:40:33.354Z,46.75
2023-12-15T13:43:02.443Z,35.72
2023-12-15T13:45:30.173Z,47.10
2023-12-15T13:47:58.092Z,43.10
2023-12-15T13:50:27.872Z,44.30
2023-12-15T13:52:55.806Z,48.65
2023-12-15T13:55:24.024Z,47.05
2023-12-15T13:57:52.621Z,40.67
2023-12-15T14:00:22.716Z,47.90
2023-12-15T14:02:50.591Z,43.40
2023-12-15T14:05:18.497Z,38.05
2023-12-15T14:07:46.360Z,45.95
2023-12-15T14:10:16.082Z,49.28
2023-12-15T14:12:44.244Z,37.03
2023-12-15T14:15:12.394Z,46.08
2023-12-15T14:17:42.014Z,43.35
2023-12-15T14:20:11.206Z,53.83
2023-12-15T14:22:39.371Z,50.40
2023-12-15T14:25:08.742Z,55.38
2023-12-15T14:27:37.536Z,49.65
2023-12-15T14:30:07.335Z,54.13
2023-12-15T14:32:35.440Z,43.75
2023-12-15T14:35:05.264Z,46.92
2023-12-15T14:37:33.218Z,51.65
2023-12-15T14:40:00.999Z,48.10
2023-12-15T14:42:28.849Z,50.95
2023-12-15T14:44:56.801Z,54.97
2023-12-15T14:47:24.585Z,44.97
2023-12-15T14:49:52.504Z,49.53
2023-12-15T14:52:21.694Z,46.85
2023-12-15T14:54:49.424Z,55.30
2023-12-15T14:57:17.319Z,52.03
2023-12-15T14:59:45.233Z,48.30
2023-12-15T15:02:13.180Z,52.70
2023-12-15T15:04:40.995Z,52.28
2023-12-15T15:07:08.773Z,56.25
2023-12-15T15:09:37.868Z,49.45
2023-12-15T15:12:06.034Z,51.67
2023-12-15T15:14:35.071Z,49.10
2023-12-15T15:17:02.900Z,51.58
2023-12-15T15:19:31.118Z,54.20
2023-12-15T15:21:59.155Z,50.33
2023-12-15T15:24:26.870Z,55.63
2023-12-15T15:26:56.044Z,56.35
2023-12-15T15:29:23.831Z,51.88
2023-12-15T15:31:51.635Z,56.90
2023-12-15T15:34:19.781Z,61.00
2023-12-15T15:36:47.788Z,48.00
2023-12-15T15:39:18.439Z,56.97
2023-12-15T15:41:48.731Z,53.97
2023-12-15T15:44:22.069Z,49.30
2023-12-15T15:46:50.572Z,55.90
2023-12-15T15:49:18.431Z,50.78
2023-12-15T15:51:46.417Z,51.00
2023-12-15T15:54:15.950Z,41.35
2023-12-15T15:56:47.084Z,50.45
2023-12-15T15:59:14.991Z,50.95
2023-12-15T16:01:44.792Z,54.80
2023-12-15T16:04:13.544Z,54.05
2023-12-15T16:06:41.731Z,55.00
2023-12-15T16:09:09.907Z,48.83
2023-12-15T16:11:37.763Z,46.83
2023-12-15T16:14:10.695Z,48.33
2023-12-15T16:16:39.984Z,47.47
2023-12-15T16:19:10.028Z,46.50
2023-12-15T16:21:38.111Z,54.67
2023-12-15T16:24:07.887Z,53.22
2023-12-15T16:26:35.946Z,48.00
2023-12-15T16:29:04.280Z,53.30
2023-12-15T16:31:32.115Z,46.80
2023-12-15T16:34:00.013Z,61.55
2023-12-15T16:36:29.344Z,57.10
2023-12-15T16:38:57.154Z,50.58
2023-12-15T16:41:25.727Z,55.10
2023-12-15T16:43:53.545Z,53.67
2023-12-15T16:46:21.468Z,51.90
2023-12-15T16:48:54.369Z,47.10
2023-12-15T16:51:23.710Z,42.53
2023-12-15T16:53:53.108Z,46.78
2023-12-15T16:56:21.248Z,42.00
2023-12-15T16:58:50.799Z,43.70
2023-12-15T17:01:18.835Z,40.60
2023-12-15T17:03:47.649Z,58.38
2023-12-15T17:06:15.608Z,47.13
2023-12-15T17:08:44.143Z,45.70
2023-12-15T17:11:14.306Z,48.97
2023-12-15T17:13:42.849Z,51.58
2023-12-15T17:16:15.102Z,48.83
2023-12-15T17:18:47.840Z,55.10
2023-12-15T17:21:16.190Z,50.10
2023-12-15T17:23:44.082Z,51.50
2023-12-15T17:26:17.309Z,52.42
2023-12-15T17:28:45.204Z,55.00
2023-12-15T17:31:13.541Z,42.88
2023-12-15T17:33:41.597Z,48.67
2023-12-15T17:36:11.739Z,58.47
2023-12-15T17:38:39.890Z,51.22
2023-12-15T17:41:07.697Z,47.65
2023-12-15T17:43:36.901Z,47.25
2023-12-15T17:46:05.140Z,44.47
2023-12-15T17:48:33.001Z,46.88
2023-12-15T17:51:01.595Z,40.42
2023-12-15T17:53:29.905Z,42.83
2023-12-15T17:55:57.925Z,48.42
2023-12-15T17:58:25.858Z,49.17
2023-12-15T18:00:54.999Z,40.97
2023-12-15T18:03:22.837Z,38.05
2023-12-15T18:05:52.213Z,46.63
2023-12-15T18:08:20.428Z,45.35
2023-12-15T18:10:48.630Z,39.60
2023-12-15T18:13:18.424Z,45.30
2023-12-15T18:15:46.647Z,41.22
2023-12-15T18:18:16.223Z,42.13
2023-12-15T18:20:44.044Z,44.85
2023-12-15T18:23:14.821Z,42.63
2023-12-15T18:25:42.718Z,40.15
2023-12-15T18:28:16.926Z,42.53
2023-12-15T18:30:50.971Z,42.25
2023-12-15T18:33:20.396Z,30.90
2023-12-15T18:35:49.770Z,44.88
2023-12-15T18:38:17.751Z,35.13
2023-12-15T18:40:46.056Z,37.88
2023-12-15T18:43:13.884Z,33.40
2023-12-15T18:45:43.295Z,38.83
2023-12-15T18:48:14.801Z,39.92
2023-12-15T18:50:44.554Z,36.63
2023-12-15T18:53:12.345Z,41.63
2023-12-15T18:55:40.152Z,41.50
2023-12-15T18:58:08.016Z,34.47
2023-12-15T19:00:35.987Z,28.65
2023-12-15T19:03:04.413Z,43.13
2023-12-15T19:05:32.293Z,35.33
2023-12-15T19:08:02.759Z,32.60
2023-12-15T19:10:30.929Z,31.35
2023-12-15T19:12:58.726Z,31.10
2023-12-15T19:15:28.651Z,35.75
2023-12-15T19:17:57.484Z,35.78
2023-12-15T19:20:30.265Z,31.73
2023-12-15T19:22:58.030Z,30.20
2023-12-15T19:25:27.542Z,30.92
2023-12-15T19:27:55.399Z,34.92
2023-12-15T19:30:23.135Z,32.83
2023-12-15T19:32:51.071Z,36.25
2023-12-15T19:35:19.179Z,37.45
2023-12-15T19:37:47.083Z,31.48
2023-12-15T19:40:15.295Z,31.63
2023-12-15T19:42:44.522Z,34.15
2023-12-15T19:45:13.105Z,36.25
2023-12-15T19:47:41.172Z,32.50
2023-12-15T19:50:10.135Z,31.83
2023-12-15T19:52:38.710Z,36.55
2023-12-15T19:55:07.843Z,36.83
2023-12-15T19:57:36.259Z,37.53
2023-12-15T20:00:08.315Z,30.80
2023-12-15T20:02:36.067Z,31.40
2023-12-15T20:05:06.666Z,36.83
2023-12-15T20:07:34.513Z,36.22
2023-12-15T20:10:02.267Z,36.25
2023-12-15T20:12:32.434Z,34.65
2023-12-15T20:15:00.324Z,38.53
2023-12-15T20:17:31.044Z,30.58
2023-12-15T20:19:59.118Z,35.45
2023-12-15T20:22:26.953Z,37.53
2023-12-15T20:24:55.092Z,29.50
2023-12-15T20:27:23.656Z,28.83
2023-12-15T20:29:51.396Z,38.97
2023-12-15T20:32:19.163Z,30.65
2023-12-15T20:34:49.275Z,28.17
2023-12-15T20:37:17.244Z,31.50
2023-12-15T20:39:45.215Z,34.67
2023-12-15T20:42:14.875Z,31.63
2023-12-15T20:44:42.965Z,29.40
2023-12-15T20:47:10.701Z,29.85
2023-12-15T20:49:39.402Z,31.35
2023-12-15T20:52:08.699Z,28.77
2023-12-15T20:54:41.165Z,31.42
2023-12-15T20:57:09.306Z,33.67
2023-12-15T20:59:40.820Z,34.97
2023-12-15T21:02:08.927Z,28.58
2023-12-15T21:04:39.385Z,30.83
2023-12-15T21:07:11.387Z,26.52
2023-12-15T21:09:41.040Z,29.20
2023-12-15T21:12:09.892Z,27.45
2023-12-15T21:14:37.671Z,30.65
2023-12-15T21:17:06.871Z,25.45
2023-12-15T21:19:34.829Z,29.92
2023-12-15T21:22:03.940Z,24.40
2023-12-15T21:24:33.347Z,26.05
2023-12-15T21:27:01.519Z,27.45
2023-12-15T21:29:29.516Z,25.48
2023-12-15T21:31:57.786Z,28.95
2023-12-15T21:34:26.116Z,27.70
2023-12-15T21:36:54.056Z,24.98
2023-12-15T21:39:22.075Z,26.45
2023-12-15T21:41:51.175Z,28.20
2023-12-15T21:44:19.021Z,22.23
2023-12-15T21:46:46.943Z,21.00
2023-12-15T21:49:14.903Z,22.95
2023-12-15T21:51:42.886Z,21.65
2023-12-15T21:54:11.492Z,22.98
2023-12-15T21:56:39.453Z,21.73
2023-12-15T21:59:08.585Z,19.42
2023-12-15T22:01:36.418Z,20.20
2023-12-15T22:04:06.534Z,25.38
2023-12-15T22:06:34.404Z,21.33
2023-12-15T22:09:02.548Z,20.13
2023-12-15T22:11:30.344Z,20.98
2023-12-15T22:13:58.285Z,23.77
2023-12-15T22:16:27.488Z,17.75
2023-12-15T22:18:55.445Z,23.33
2023-12-15T22:21:23.928Z,19.63
2023-12-15T22:23:51.772Z,19.38
2023-12-15T22:26:19.716Z,19.65
2023-12-15T22:28:48.040Z,19.65
2023-12-15T22:31:16.036Z,20.77
2023-12-15T22:33:45.702Z,22.05
2023-12-15T22:36:21.780Z,17.70
2023-12-15T22:38:49.812Z,21.05
2023-12-15T22:41:18.156Z,20.23
2023-12-15T22:43:46.114Z,24.20
2023-12-15T22:46:13.998Z,17.73
2023-12-15T22:48:44.092Z,18.42
2023-12-15T22:51:13.374Z,23.73
2023-12-15T22:53:41.458Z,19.02
2023-12-15T22:56:10.486Z,17.02
2023-12-15T22:58:38.268Z,17.50
2023-12-15T23:01:06.781Z,17.77
2023-12-15T23:03:34.813Z,19.95
2023-12-15T23:06:02.686Z,18.98
2023-12-15T23:08:31.831Z,16.65
2023-12-15T23:10:59.687Z,25.17
2023-12-15T23:13:27.561Z,19.33
2023-12-15T23:15:56.032Z,20.25
2023-12-15T23:18:24.184Z,23.20
2023-12-15T23:20:52.220Z,19.13
2023-12-15T23:23:20.016Z,15.25
2023-12-15T23:25:49.407Z,21.45
2023-12-15T23:28:17.379Z,18.05
2023-12-15T23:30:45.562Z,15.02
2023-12-15T23:33:13.594Z,19.38
2023-12-15T23:35:41.951Z,15.07
2023-12-15T23:38:09.812Z,17.63
2023-12-15T23:40:37.574Z,15.23
2023-12-15T23:43:06.701Z,16.60
2023-12-15T23:45:34.450Z,19.90
2023-12-15T23:48:02.280Z,17.13
2023-12-15T23:50:30.202Z,16.70
2023-12-15T23:52:58.029Z,16.20
2023-12-15T23:55:25.933Z,19.35
2023-12-15T23:57:55.057Z,17.52
